sensor_id;sensor_type;location;lat;lon;timestamp;P1;durP1;ratioP1;P2;durP2;ratioP2
52894;SDS011;38759;53.396;6.722;2023-05-07T00:02:25;23.67;;;14.30;;
52894;SDS011;38759;53.396;6.722;2023-05-07T00:04:50;25.70;;;14.40;;
52894;SDS011;38759;53.396;6.722;2023-05-07T00:07:17;25.33;;;14.52;;
52894;SDS011;38759;53.396;6.722;2023-05-07T00:09:43;28.92;;;15.88;;
52894;SDS011;38759;53.396;6.722;2023-05-07T00:12:08;30.13;;;22.02;;
52894;SDS011;38759;53.396;6.722;2023-05-07T00:14:34;27.35;;;15.32;;
52894;SDS011;38759;53.396;6.722;2023-05-07T00:17:00;28.77;;;16.88;;
52894;SDS011;38759;53.396;6.722;2023-05-07T00:19:26;28.88;;;16.65;;
52894;SDS011;38759;53.396;6.722;2023-05-07T00:21:51;31.92;;;22.23;;
52894;SDS011;38759;53.396;6.722;2023-05-07T00:24:19;28.77;;;16.55;;
52894;SDS011;38759;53.396;6.722;2023-05-07T00:26:44;30.30;;;16.90;;
52894;SDS011;38759;53.396;6.722;2023-05-07T00:29:10;34.08;;;17.05;;
52894;SDS011;38759;53.396;6.722;2023-05-07T00:31:36;32.65;;;23.95;;
52894;SDS011;38759;53.396;6.722;2023-05-07T00:34:01;30.88;;;21.25;;
52894;SDS011;38759;53.396;6.722;2023-05-07T00:36:27;28.20;;;17.45;;
52894;SDS011;38759;53.396;6.722;2023-05-07T00:38:53;34.53;;;17.60;;
52894;SDS011;38759;53.396;6.722;2023-05-07T00:41:20;36.92;;;19.27;;
52894;SDS011;38759;53.396;6.722;2023-05-07T00:43:46;32.58;;;19.00;;
52894;SDS011;38759;53.396;6.722;2023-05-07T00:46:12;41.78;;;28.20;;
52894;SDS011;38759;53.396;6.722;2023-05-07T00:48:40;37.65;;;27.48;;
52894;SDS011;38759;53.396;6.722;2023-05-07T00:51:06;36.78;;;21.80;;
52894;SDS011;38759;53.396;6.722;2023-05-07T00:53:32;33.20;;;21.42;;
52894;SDS011;38759;53.396;6.722;2023-05-07T00:55:57;33.70;;;23.20;;
52894;SDS011;38759;53.396;6.722;2023-05-07T00:58:23;32.13;;;16.90;;
52894;SDS011;38759;53.396;6.722;2023-05-07T01:00:49;31.98;;;16.27;;
52894;SDS011;38759;53.396;6.722;2023-05-07T01:03:15;34.78;;;17.30;;
52894;SDS011;38759;53.396;6.722;2023-05-07T01:05:41;31.40;;;18.45;;
52894;SDS011;38759;53.396;6.722;2023-05-07T01:08:08;28.17;;;16.38;;
52894;SDS011;38759;53.396;6.722;2023-05-07T01:10:34;33.22;;;16.90;;
52894;SDS011;38759;53.396;6.722;2023-05-07T01:12:59;35.45;;;17.95;;
52894;SDS011;38759;53.396;6.722;2023-05-07T01:15:26;31.23;;;17.45;;
52894;SDS011;38759;53.396;6.722;2023-05-07T01:17:52;34.15;;;24.98;;
52894;SDS011;38759;53.396;6.722;2023-05-07T01:20:18;32.95;;;22.98;;
52894;SDS011;38759;53.396;6.722;2023-05-07T01:22:44;31.30;;;18.13;;
52894;SDS011;38759;53.396;6.722;2023-05-07T01:25:10;25.42;;;15.57;;
52894;SDS011;38759;53.396;6.722;2023-05-07T01:27:36;31.27;;;22.48;;
52894;SDS011;38759;53.396;6.722;2023-05-07T01:30:05;35.65;;;25.35;;
52894;SDS011;38759;53.396;6.722;2023-05-07T01:32:33;30.70;;;17.60;;
52894;SDS011;38759;53.396;6.722;2023-05-07T01:35:02;30.77;;;22.55;;
52894;SDS011;38759;53.396;6.722;2023-05-07T01:37:30;34.08;;;18.60;;
52894;SDS011;38759;53.396;6.722;2023-05-07T01:39:56;30.08;;;22.10;;
52894;SDS011;38759;53.396;6.722;2023-05-07T01:42:22;38.10;;;18.05;;
52894;SDS011;38759;53.396;6.722;2023-05-07T01:44:48;32.83;;;18.67;;
52894;SDS011;38759;53.396;6.722;2023-05-07T01:47:14;35.22;;;26.00;;
52894;SDS011;38759;53.396;6.722;2023-05-07T01:49:40;34.70;;;24.67;;
52894;SDS011;38759;53.396;6.722;2023-05-07T01:52:06;32.83;;;17.40;;
52894;SDS011;38759;53.396;6.722;2023-05-07T01:54:32;33.17;;;24.80;;
52894;SDS011;38759;53.396;6.722;2023-05-07T01:56:59;32.38;;;17.17;;
52894;SDS011;38759;53.396;6.722;2023-05-07T01:59:25;31.23;;;17.08;;
52894;SDS011;38759;53.396;6.722;2023-05-07T02:01:50;36.20;;;18.48;;
52894;SDS011;38759;53.396;6.722;2023-05-07T02:04:17;37.22;;;22.75;;
52894;SDS011;38759;53.396;6.722;2023-05-07T02:06:42;32.67;;;18.80;;
52894;SDS011;38759;53.396;6.722;2023-05-07T02:09:08;40.88;;;30.33;;
52894;SDS011;38759;53.396;6.722;2023-05-07T02:11:34;36.58;;;20.30;;
52894;SDS011;38759;53.396;6.722;2023-05-07T02:14:00;35.35;;;21.45;;
52894;SDS011;38759;53.396;6.722;2023-05-07T02:16:25;40.33;;;22.30;;
52894;SDS011;38759;53.396;6.722;2023-05-07T02:18:51;39.67;;;22.20;;
52894;SDS011;38759;53.396;6.722;2023-05-07T02:21:17;42.03;;;24.10;;
52894;SDS011;38759;53.396;6.722;2023-05-07T02:23:42;37.80;;;20.30;;
52894;SDS011;38759;53.396;6.722;2023-05-07T02:26:08;45.47;;;29.23;;
52894;SDS011;38759;53.396;6.722;2023-05-07T02:28:35;37.65;;;27.45;;
52894;SDS011;38759;53.396;6.722;2023-05-07T02:31:03;31.52;;;17.85;;
52894;SDS011;38759;53.396;6.722;2023-05-07T02:33:29;33.67;;;23.33;;
52894;SDS011;38759;53.396;6.722;2023-05-07T02:35:55;32.10;;;17.85;;
52894;SDS011;38759;53.396;6.722;2023-05-07T02:38:21;31.88;;;18.23;;
52894;SDS011;38759;53.396;6.722;2023-05-07T02:40:47;31.98;;;18.48;;
52894;SDS011;38759;53.396;6.722;2023-05-07T02:43:13;29.10;;;17.08;;
52894;SDS011;38759;53.396;6.722;2023-05-07T02:45:39;35.50;;;19.67;;
52894;SDS011;38759;53.396;6.722;2023-05-07T02:48:04;29.83;;;18.05;;
52894;SDS011;38759;53.396;6.722;2023-05-07T02:50:31;36.47;;;26.58;;
52894;SDS011;38759;53.396;6.722;2023-05-07T02:52:57;33.42;;;18.08;;
52894;SDS011;38759;53.396;6.722;2023-05-07T02:55:23;37.58;;;18.98;;
52894;SDS011;38759;53.396;6.722;2023-05-07T02:57:49;37.13;;;20.35;;
52894;SDS011;38759;53.396;6.722;2023-05-07T03:00:16;48.58;;;35.70;;
52894;SDS011;38759;53.396;6.722;2023-05-07T03:02:43;41.83;;;23.02;;
52894;SDS011;38759;53.396;6.722;2023-05-07T03:05:11;44.63;;;23.98;;
52894;SDS011;38759;53.396;6.722;2023-05-07T03:07:37;48.50;;;31.63;;
52894;SDS011;38759;53.396;6.722;2023-05-07T03:10:03;37.35;;;20.55;;
52894;SDS011;38759;53.396;6.722;2023-05-07T03:12:30;42.88;;;21.27;;
52894;SDS011;38759;53.396;6.722;2023-05-07T03:14:56;35.08;;;19.17;;
52894;SDS011;38759;53.396;6.722;2023-05-07T03:17:22;36.53;;;20.92;;
52894;SDS011;38759;53.396;6.722;2023-05-07T03:19:47;40.10;;;25.95;;
52894;SDS011;38759;53.396;6.722;2023-05-07T03:22:13;43.65;;;23.65;;
52894;SDS011;38759;53.396;6.722;2023-05-07T03:24:39;43.42;;;30.83;;
52894;SDS011;38759;53.396;6.722;2023-05-07T03:27:05;42.13;;;23.85;;
52894;SDS011;38759;53.396;6.722;2023-05-07T03:29:31;40.92;;;21.83;;
52894;SDS011;38759;53.396;6.722;2023-05-07T03:31:56;42.33;;;33.33;;
52894;SDS011;38759;53.396;6.722;2023-05-07T03:34:22;38.05;;;21.92;;
52894;SDS011;38759;53.396;6.722;2023-05-07T03:36:48;36.47;;;19.42;;
52894;SDS011;38759;53.396;6.722;2023-05-07T03:39:14;33.08;;;19.08;;
52894;SDS011;38759;53.396;6.722;2023-05-07T03:41:40;36.17;;;19.92;;
52894;SDS011;38759;53.396;6.722;2023-05-07T03:44:06;33.35;;;19.75;;
52894;SDS011;38759;53.396;6.722;2023-05-07T03:46:31;33.25;;;19.60;;
52894;SDS011;38759;53.396;6.722;2023-05-07T03:48:58;34.45;;;19.98;;
52894;SDS011;38759;53.396;6.722;2023-05-07T03:51:23;35.20;;;19.73;;
52894;SDS011;38759;53.396;6.722;2023-05-07T03:53:50;33.13;;;20.10;;
52894;SDS011;38759;53.396;6.722;2023-05-07T03:56:19;38.58;;;26.73;;
52894;SDS011;38759;53.396;6.722;2023-05-07T03:58:46;36.75;;;22.17;;
52894;SDS011;38759;53.396;6.722;2023-05-07T04:01:12;38.55;;;21.30;;
52894;SDS011;38759;53.396;6.722;2023-05-07T04:03:38;42.50;;;22.25;;
52894;SDS011;38759;53.396;6.722;2023-05-07T04:06:04;31.77;;;18.92;;
52894;SDS011;38759;53.396;6.722;2023-05-07T04:08:29;37.10;;;29.80;;
52894;SDS011;38759;53.396;6.722;2023-05-07T04:10:58;31.25;;;18.38;;
52894;SDS011;38759;53.396;6.722;2023-05-07T04:13:24;39.75;;;25.88;;
52894;SDS011;38759;53.396;6.722;2023-05-07T04:15:51;37.38;;;20.20;;
52894;SDS011;38759;53.396;6.722;2023-05-07T04:18:17;37.10;;;19.55;;
52894;SDS011;38759;53.396;6.722;2023-05-07T04:20:42;37.47;;;20.80;;
52894;SDS011;38759;53.396;6.722;2023-05-07T04:23:08;35.67;;;19.70;;
52894;SDS011;38759;53.396;6.722;2023-05-07T04:25:34;38.20;;;21.30;;
52894;SDS011;38759;53.396;6.722;2023-05-07T04:27:59;34.08;;;20.13;;
52894;SDS011;38759;53.396;6.722;2023-05-07T04:30:25;36.72;;;26.15;;
52894;SDS011;38759;53.396;6.722;2023-05-07T04:32:51;35.03;;;20.33;;
52894;SDS011;38759;53.396;6.722;2023-05-07T04:35:17;33.70;;;19.77;;
52894;SDS011;38759;53.396;6.722;2023-05-07T04:37:44;37.95;;;20.00;;
52894;SDS011;38759;53.396;6.722;2023-05-07T04:40:09;32.00;;;19.58;;
52894;SDS011;38759;53.396;6.722;2023-05-07T04:42:35;28.50;;;17.35;;
52894;SDS011;38759;53.396;6.722;2023-05-07T04:45:01;32.28;;;24.77;;
52894;SDS011;38759;53.396;6.722;2023-05-07T04:47:27;29.70;;;18.40;;
52894;SDS011;38759;53.396;6.722;2023-05-07T04:49:53;31.10;;;18.60;;
52894;SDS011;38759;53.396;6.722;2023-05-07T04:52:19;35.42;;;18.70;;
52894;SDS011;38759;53.396;6.722;2023-05-07T04:54:45;30.88;;;18.77;;
52894;SDS011;38759;53.396;6.722;2023-05-07T04:57:11;36.30;;;18.60;;
52894;SDS011;38759;53.396;6.722;2023-05-07T04:59:36;31.95;;;19.70;;
52894;SDS011;38759;53.396;6.722;2023-05-07T05:02:02;29.40;;;18.77;;
52894;SDS011;38759;53.396;6.722;2023-05-07T05:04:29;27.52;;;17.45;;
52894;SDS011;38759;53.396;6.722;2023-05-07T05:06:55;30.05;;;18.60;;
52894;SDS011;38759;53.396;6.722;2023-05-07T05:09:21;27.38;;;17.67;;
52894;SDS011;38759;53.396;6.722;2023-05-07T05:11:46;32.85;;;18.23;;
52894;SDS011;38759;53.396;6.722;2023-05-07T05:14:12;32.22;;;23.48;;
52894;SDS011;38759;53.396;6.722;2023-05-07T05:16:37;28.08;;;17.65;;
52894;SDS011;38759;53.396;6.722;2023-05-07T05:19:03;30.95;;;18.52;;
52894;SDS011;38759;53.396;6.722;2023-05-07T05:21:29;28.70;;;17.92;;
52894;SDS011;38759;53.396;6.722;2023-05-07T05:23:54;26.00;;;16.65;;
52894;SDS011;38759;53.396;6.722;2023-05-07T05:26:20;25.40;;;16.10;;
52894;SDS011;38759;53.396;6.722;2023-05-07T05:28:46;27.27;;;17.40;;
52894;SDS011;38759;53.396;6.722;2023-05-07T05:31:12;30.08;;;17.77;;
52894;SDS011;38759;53.396;6.722;2023-05-07T05:33:39;32.33;;;18.20;;
52894;SDS011;38759;53.396;6.722;2023-05-07T05:36:05;31.58;;;19.40;;
52894;SDS011;38759;53.396;6.722;2023-05-07T05:38:31;32.25;;;19.73;;
52894;SDS011;38759;53.396;6.722;2023-05-07T05:40:57;34.80;;;26.98;;
52894;SDS011;38759;53.396;6.722;2023-05-07T05:43:23;30.88;;;19.00;;
52894;SDS011;38759;53.396;6.722;2023-05-07T05:45:48;28.17;;;18.38;;
52894;SDS011;38759;53.396;6.722;2023-05-07T05:48:14;27.73;;;16.27;;
52894;SDS011;38759;53.396;6.722;2023-05-07T05:50:41;27.45;;;16.95;;
52894;SDS011;38759;53.396;6.722;2023-05-07T05:53:07;29.55;;;16.42;;
52894;SDS011;38759;53.396;6.722;2023-05-07T05:55:33;29.15;;;16.80;;
52894;SDS011;38759;53.396;6.722;2023-05-07T05:58:00;26.33;;;16.50;;
52894;SDS011;38759;53.396;6.722;2023-05-07T06:00:26;27.90;;;16.15;;
52894;SDS011;38759;53.396;6.722;2023-05-07T06:02:52;30.83;;;16.52;;
52894;SDS011;38759;53.396;6.722;2023-05-07T06:05:18;28.60;;;15.82;;
52894;SDS011;38759;53.396;6.722;2023-05-07T06:07:43;28.35;;;16.80;;
52894;SDS011;38759;53.396;6.722;2023-05-07T06:10:09;30.55;;;17.05;;
52894;SDS011;38759;53.396;6.722;2023-05-07T06:12:35;28.20;;;16.88;;
52894;SDS011;38759;53.396;6.722;2023-05-07T06:15:01;26.55;;;16.52;;
52894;SDS011;38759;53.396;6.722;2023-05-07T06:17:27;35.08;;;18.23;;
52894;SDS011;38759;53.396;6.722;2023-05-07T06:19:52;31.63;;;16.00;;
52894;SDS011;38759;53.396;6.722;2023-05-07T06:22:18;26.58;;;15.73;;
52894;SDS011;38759;53.396;6.722;2023-05-07T06:24:44;27.52;;;16.08;;
52894;SDS011;38759;53.396;6.722;2023-05-07T06:27:10;24.70;;;15.27;;
52894;SDS011;38759;53.396;6.722;2023-05-07T06:29:36;27.17;;;16.65;;
52894;SDS011;38759;53.396;6.722;2023-05-07T06:32:08;30.08;;;17.17;;
52894;SDS011;38759;53.396;6.722;2023-05-07T06:34:35;33.63;;;20.83;;
52894;SDS011;38759;53.396;6.722;2023-05-07T06:37:02;39.03;;;18.45;;
52894;SDS011;38759;53.396;6.722;2023-05-07T06:39:27;35.97;;;19.80;;
52894;SDS011;38759;53.396;6.722;2023-05-07T06:41:53;32.95;;;19.15;;
52894;SDS011;38759;53.396;6.722;2023-05-07T06:44:19;33.83;;;18.92;;
52894;SDS011;38759;53.396;6.722;2023-05-07T06:46:45;32.72;;;19.58;;
52894;SDS011;38759;53.396;6.722;2023-05-07T06:49:12;32.30;;;20.15;;
52894;SDS011;38759;53.396;6.722;2023-05-07T06:51:38;27.50;;;16.63;;
52894;SDS011;38759;53.396;6.722;2023-05-07T06:54:03;37.42;;;23.33;;
52894;SDS011;38759;53.396;6.722;2023-05-07T06:56:29;35.28;;;17.63;;
52894;SDS011;38759;53.396;6.722;2023-05-07T06:58:56;31.42;;;18.00;;
52894;SDS011;38759;53.396;6.722;2023-05-07T07:01:21;35.25;;;19.13;;
52894;SDS011;38759;53.396;6.722;2023-05-07T07:03:47;36.20;;;19.50;;
52894;SDS011;38759;53.396;6.722;2023-05-07T07:06:13;37.60;;;19.40;;
52894;SDS011;38759;53.396;6.722;2023-05-07T07:08:38;36.15;;;19.35;;
52894;SDS011;38759;53.396;6.722;2023-05-07T07:11:05;36.35;;;20.65;;
52894;SDS011;38759;53.396;6.722;2023-05-07T07:13:31;30.50;;;17.88;;
52894;SDS011;38759;53.396;6.722;2023-05-07T07:15:57;31.98;;;18.65;;
52894;SDS011;38759;53.396;6.722;2023-05-07T07:18:23;31.98;;;23.52;;
52894;SDS011;38759;53.396;6.722;2023-05-07T07:20:48;35.05;;;19.98;;
52894;SDS011;38759;53.396;6.722;2023-05-07T07:23:14;38.70;;;24.08;;
52894;SDS011;38759;53.396;6.722;2023-05-07T07:25:40;33.00;;;19.02;;
52894;SDS011;38759;53.396;6.722;2023-05-07T07:28:06;34.13;;;18.63;;
52894;SDS011;38759;53.396;6.722;2023-05-07T07:30:31;32.47;;;17.63;;
52894;SDS011;38759;53.396;6.722;2023-05-07T07:32:57;29.95;;;16.38;;
52894;SDS011;38759;53.396;6.722;2023-05-07T07:35:30;32.75;;;18.52;;
52894;SDS011;38759;53.396;6.722;2023-05-07T07:37:58;32.70;;;18.73;;
52894;SDS011;38759;53.396;6.722;2023-05-07T07:40:24;30.85;;;18.13;;
52894;SDS011;38759;53.396;6.722;2023-05-07T07:42:51;34.42;;;23.83;;
52894;SDS011;38759;53.396;6.722;2023-05-07T07:45:18;32.90;;;18.52;;
52894;SDS011;38759;53.396;6.722;2023-05-07T07:47:44;32.75;;;17.00;;
52894;SDS011;38759;53.396;6.722;2023-05-07T07:50:10;31.48;;;18.10;;
52894;SDS011;38759;53.396;6.722;2023-05-07T07:52:39;33.40;;;18.55;;
52894;SDS011;38759;53.396;6.722;2023-05-07T07:55:06;32.05;;;21.23;;
52894;SDS011;38759;53.396;6.722;2023-05-07T07:57:32;32.45;;;19.08;;
52894;SDS011;38759;53.396;6.722;2023-05-07T07:59:57;36.05;;;25.25;;
52894;SDS011;38759;53.396;6.722;2023-05-07T08:02:23;33.58;;;19.55;;
52894;SDS011;38759;53.396;6.722;2023-05-07T08:04:49;36.67;;;19.88;;
52894;SDS011;38759;53.396;6.722;2023-05-07T08:07:14;37.78;;;21.35;;
52894;SDS011;38759;53.396;6.722;2023-05-07T08:09:43;37.42;;;20.75;;
52894;SDS011;38759;53.396;6.722;2023-05-07T08:12:09;41.65;;;26.60;;
52894;SDS011;38759;53.396;6.722;2023-05-07T08:14:35;38.70;;;22.85;;
52894;SDS011;38759;53.396;6.722;2023-05-07T08:17:02;42.83;;;29.77;;
52894;SDS011;38759;53.396;6.722;2023-05-07T08:19:27;43.83;;;27.92;;
52894;SDS011;38759;53.396;6.722;2023-05-07T08:21:53;36.05;;;21.00;;
52894;SDS011;38759;53.396;6.722;2023-05-07T08:24:18;38.50;;;20.92;;
52894;SDS011;38759;53.396;6.722;2023-05-07T08:26:44;39.45;;;25.80;;
52894;SDS011;38759;53.396;6.722;2023-05-07T08:29:10;37.90;;;21.70;;
52894;SDS011;38759;53.396;6.722;2023-05-07T08:31:36;42.58;;;24.20;;
52894;SDS011;38759;53.396;6.722;2023-05-07T08:34:03;44.90;;;26.10;;
52894;SDS011;38759;53.396;6.722;2023-05-07T08:36:30;41.83;;;23.77;;
52894;SDS011;38759;53.396;6.722;2023-05-07T08:38:55;42.05;;;26.15;;
52894;SDS011;38759;53.396;6.722;2023-05-07T08:41:21;43.95;;;24.63;;
52894;SDS011;38759;53.396;6.722;2023-05-07T08:43:48;44.83;;;28.10;;
52894;SDS011;38759;53.396;6.722;2023-05-07T08:46:21;41.83;;;25.48;;
52894;SDS011;38759;53.396;6.722;2023-05-07T08:48:48;45.65;;;37.63;;
52894;SDS011;38759;53.396;6.722;2023-05-07T08:51:19;48.33;;;28.63;;
52894;SDS011;38759;53.396;6.722;2023-05-07T08:53:46;48.80;;;27.27;;
52894;SDS011;38759;53.396;6.722;2023-05-07T08:56:16;49.15;;;28.90;;
52894;SDS011;38759;53.396;6.722;2023-05-07T08:58:43;50.15;;;27.73;;
52894;SDS011;38759;53.396;6.722;2023-05-07T09:01:10;47.15;;;26.92;;
52894;SDS011;38759;53.396;6.722;2023-05-07T09:03:39;44.65;;;26.02;;
52894;SDS011;38759;53.396;6.722;2023-05-07T09:06:06;39.53;;;25.15;;
52894;SDS011;38759;53.396;6.722;2023-05-07T09:08:32;43.65;;;35.60;;
52894;SDS011;38759;53.396;6.722;2023-05-07T09:10:59;46.47;;;27.48;;
52894;SDS011;38759;53.396;6.722;2023-05-07T09:13:25;43.25;;;25.60;;
52894;SDS011;38759;53.396;6.722;2023-05-07T09:15:51;43.72;;;24.80;;
52894;SDS011;38759;53.396;6.722;2023-05-07T09:18:17;39.40;;;33.72;;
52894;SDS011;38759;53.396;6.722;2023-05-07T09:20:43;43.55;;;35.05;;
52894;SDS011;38759;53.396;6.722;2023-05-07T09:23:09;44.05;;;28.48;;
52894;SDS011;38759;53.396;6.722;2023-05-07T09:25:35;40.40;;;33.00;;
52894;SDS011;38759;53.396;6.722;2023-05-07T09:28:02;35.33;;;30.80;;
52894;SDS011;38759;53.396;6.722;2023-05-07T09:30:30;36.40;;;27.88;;
52894;SDS011;38759;53.396;6.722;2023-05-07T09:33:00;36.42;;;23.33;;
52894;SDS011;38759;53.396;6.722;2023-05-07T09:35:27;37.38;;;24.23;;
52894;SDS011;38759;53.396;6.722;2023-05-07T09:37:53;37.28;;;22.92;;
52894;SDS011;38759;53.396;6.722;2023-05-07T09:40:20;36.28;;;23.40;;
52894;SDS011;38759;53.396;6.722;2023-05-07T09:42:48;35.33;;;22.67;;
52894;SDS011;38759;53.396;6.722;2023-05-07T09:45:14;38.58;;;34.50;;
52894;SDS011;38759;53.396;6.722;2023-05-07T09:50:18;40.45;;;35.08;;
52894;SDS011;38759;53.396;6.722;2023-05-07T09:52:46;40.58;;;36.28;;
52894;SDS011;38759;53.396;6.722;2023-05-07T09:55:13;44.35;;;28.80;;
52894;SDS011;38759;53.396;6.722;2023-05-07T09:57:40;40.60;;;27.88;;
52894;SDS011;38759;53.396;6.722;2023-05-07T10:00:07;40.45;;;27.85;;
52894;SDS011;38759;53.396;6.722;2023-05-07T10:02:35;41.42;;;28.88;;
52894;SDS011;38759;53.396;6.722;2023-05-07T10:05:02;46.28;;;41.53;;
52894;SDS011;38759;53.396;6.722;2023-05-07T10:07:29;40.53;;;36.35;;
52894;SDS011;38759;53.396;6.722;2023-05-07T10:09:55;36.55;;;32.85;;
52894;SDS011;38759;53.396;6.722;2023-05-07T10:12:22;39.42;;;26.60;;
52894;SDS011;38759;53.396;6.722;2023-05-07T10:14:48;34.97;;;31.42;;
52894;SDS011;38759;53.396;6.722;2023-05-07T10:17:17;36.97;;;33.30;;
52894;SDS011;38759;53.396;6.722;2023-05-07T10:19:44;35.33;;;25.70;;
52894;SDS011;38759;53.396;6.722;2023-05-07T10:22:10;35.13;;;24.90;;
52894;SDS011;38759;53.396;6.722;2023-05-07T10:24:38;36.05;;;24.25;;
52894;SDS011;38759;53.396;6.722;2023-05-07T10:27:06;38.67;;;25.40;;
52894;SDS011;38759;53.396;6.722;2023-05-07T10:34:56;36.10;;;22.95;;
52894;SDS011;38759;53.396;6.722;2023-05-07T10:37:27;34.80;;;22.65;;
52894;SDS011;38759;53.396;6.722;2023-05-07T10:39:54;31.52;;;23.60;;
52894;SDS011;38759;53.396;6.722;2023-05-07T10:42:20;31.20;;;27.95;;
52894;SDS011;38759;53.396;6.722;2023-05-07T10:44:46;33.00;;;29.08;;
52894;SDS011;38759;53.396;6.722;2023-05-07T10:47:15;33.90;;;30.50;;
52894;SDS011;38759;53.396;6.722;2023-05-07T10:52:22;34.50;;;31.00;;
52894;SDS011;38759;53.396;6.722;2023-05-07T10:57:50;36.65;;;32.95;;
52894;SDS011;38759;53.396;6.722;2023-05-07T11:05:29;39.30;;;24.38;;
52894;SDS011;38759;53.396;6.722;2023-05-07T11:07:59;33.45;;;24.27;;
52894;SDS011;38759;53.396;6.722;2023-05-07T11:11:11;34.00;;;30.75;;
52894;SDS011;38759;53.396;6.722;2023-05-07T11:13:15;34.58;;;31.08;;
52894;SDS011;38759;53.396;6.722;2023-05-07T11:15:43;35.13;;;31.13;;
52894;SDS011;38759;53.396;6.722;2023-05-07T11:18:11;31.88;;;28.63;;
52894;SDS011;38759;53.396;6.722;2023-05-07T11:20:45;27.95;;;25.35;;
52894;SDS011;38759;53.396;6.722;2023-05-07T11:26:06;29.33;;;26.42;;
52894;SDS011;38759;53.396;6.722;2023-05-07T11:28:37;28.15;;;25.45;;
52894;SDS011;38759;53.396;6.722;2023-05-07T11:31:03;30.52;;;27.30;;
52894;SDS011;38759;53.396;6.722;2023-05-07T11:33:30;29.70;;;26.77;;
52894;SDS011;38759;53.396;6.722;2023-05-07T11:35:56;30.65;;;22.77;;
52894;SDS011;38759;53.396;6.722;2023-05-07T11:38:22;35.40;;;23.23;;
52894;SDS011;38759;53.396;6.722;2023-05-07T11:40:50;29.65;;;26.60;;
52894;SDS011;38759;53.396;6.722;2023-05-07T11:43:25;32.67;;;29.42;;
52894;SDS011;38759;53.396;6.722;2023-05-07T11:45:51;33.65;;;30.27;;
52894;SDS011;38759;53.396;6.722;2023-05-07T11:48:18;34.17;;;30.77;;
52894;SDS011;38759;53.396;6.722;2023-05-07T11:50:52;31.33;;;28.23;;
52894;SDS011;38759;53.396;6.722;2023-05-07T11:53:24;31.38;;;28.05;;
52894;SDS011;38759;53.396;6.722;2023-05-07T11:55:57;29.42;;;26.48;;
52894;SDS011;38759;53.396;6.722;2023-05-07T11:58:23;27.13;;;24.42;;
52894;SDS011;38759;53.396;6.722;2023-05-07T12:00:50;25.63;;;23.13;;
52894;SDS011;38759;53.396;6.722;2023-05-07T12:03:17;24.25;;;21.88;;
52894;SDS011;38759;53.396;6.722;2023-05-07T12:05:47;25.33;;;22.88;;
52894;SDS011;38759;53.396;6.722;2023-05-07T12:08:16;26.80;;;24.10;;
52894;SDS011;38759;53.396;6.722;2023-05-07T12:10:43;27.38;;;24.75;;
52894;SDS011;38759;53.396;6.722;2023-05-07T12:13:28;30.98;;;28.08;;
52894;SDS011;38759;53.396;6.722;2023-05-07T12:15:57;30.52;;;27.70;;
52894;SDS011;38759;53.396;6.722;2023-05-07T12:18:23;29.80;;;27.00;;
52894;SDS011;38759;53.396;6.722;2023-05-07T12:20:49;31.92;;;29.02;;
52894;SDS011;38759;53.396;6.722;2023-05-07T12:23:16;33.72;;;30.45;;
52894;SDS011;38759;53.396;6.722;2023-05-07T12:25:42;34.38;;;31.17;;
52894;SDS011;38759;53.396;6.722;2023-05-07T12:28:18;33.53;;;30.42;;
52894;SDS011;38759;53.396;6.722;2023-05-07T12:30:45;30.58;;;27.60;;
52894;SDS011;38759;53.396;6.722;2023-05-07T12:33:16;26.70;;;24.00;;
52894;SDS011;38759;53.396;6.722;2023-05-07T12:35:52;26.60;;;24.20;;
52894;SDS011;38759;53.396;6.722;2023-05-07T12:38:19;22.02;;;20.05;;
52894;SDS011;38759;53.396;6.722;2023-05-07T12:40:45;22.33;;;20.23;;
52894;SDS011;38759;53.396;6.722;2023-05-07T12:43:16;21.60;;;19.50;;
52894;SDS011;38759;53.396;6.722;2023-05-07T12:45:49;22.15;;;19.95;;
52894;SDS011;38759;53.396;6.722;2023-05-07T12:48:16;20.38;;;18.67;;
52894;SDS011;38759;53.396;6.722;2023-05-07T12:50:42;21.95;;;19.75;;
52894;SDS011;38759;53.396;6.722;2023-05-07T12:53:10;21.45;;;19.55;;
52894;SDS011;38759;53.396;6.722;2023-05-07T12:55:41;22.55;;;20.45;;
52894;SDS011;38759;53.396;6.722;2023-05-07T12:58:14;21.65;;;19.65;;
52894;SDS011;38759;53.396;6.722;2023-05-07T13:00:42;22.58;;;20.58;;
52894;SDS011;38759;53.396;6.722;2023-05-07T13:03:08;21.50;;;19.70;;
52894;SDS011;38759;53.396;6.722;2023-05-07T13:05:34;23.77;;;21.60;;
52894;SDS011;38759;53.396;6.722;2023-05-07T13:08:00;22.98;;;20.98;;
52894;SDS011;38759;53.396;6.722;2023-05-07T13:10:26;23.48;;;21.08;;
52894;SDS011;38759;53.396;6.722;2023-05-07T13:12:52;22.33;;;20.35;;
52894;SDS011;38759;53.396;6.722;2023-05-07T13:15:18;23.05;;;20.85;;
52894;SDS011;38759;53.396;6.722;2023-05-07T13:17:44;21.67;;;19.67;;
52894;SDS011;38759;53.396;6.722;2023-05-07T13:20:10;23.58;;;21.38;;
52894;SDS011;38759;53.396;6.722;2023-05-07T13:22:37;22.77;;;20.77;;
52894;SDS011;38759;53.396;6.722;2023-05-07T13:25:04;22.23;;;19.88;;
52894;SDS011;38759;53.396;6.722;2023-05-07T13:27:30;20.15;;;18.23;;
52894;SDS011;38759;53.396;6.722;2023-05-07T13:29:56;21.73;;;19.52;;
52894;SDS011;38759;53.396;6.722;2023-05-07T13:32:22;21.23;;;19.50;;
52894;SDS011;38759;53.396;6.722;2023-05-07T13:34:48;19.48;;;17.77;;
52894;SDS011;38759;53.396;6.722;2023-05-07T13:37:14;18.95;;;17.33;;
52894;SDS011;38759;53.396;6.722;2023-05-07T13:39:39;17.73;;;16.23;;
52894;SDS011;38759;53.396;6.722;2023-05-07T13:42:06;17.92;;;16.40;;
52894;SDS011;38759;53.396;6.722;2023-05-07T13:44:31;18.67;;;16.98;;
52894;SDS011;38759;53.396;6.722;2023-05-07T13:46:57;18.70;;;16.90;;
52894;SDS011;38759;53.396;6.722;2023-05-07T13:49:23;17.42;;;15.82;;
52894;SDS011;38759;53.396;6.722;2023-05-07T13:51:49;18.00;;;16.25;;
52894;SDS011;38759;53.396;6.722;2023-05-07T13:54:14;17.75;;;16.23;;
52894;SDS011;38759;53.396;6.722;2023-05-07T13:56:41;17.27;;;15.57;;
52894;SDS011;38759;53.396;6.722;2023-05-07T13:59:06;17.27;;;15.77;;
52894;SDS011;38759;53.396;6.722;2023-05-07T14:01:32;17.75;;;15.98;;
52894;SDS011;38759;53.396;6.722;2023-05-07T14:03:58;16.95;;;15.40;;
52894;SDS011;38759;53.396;6.722;2023-05-07T14:06:24;17.08;;;15.57;;
52894;SDS011;38759;53.396;6.722;2023-05-07T14:08:50;17.27;;;15.82;;
52894;SDS011;38759;53.396;6.722;2023-05-07T14:11:16;15.35;;;13.95;;
52894;SDS011;38759;53.396;6.722;2023-05-07T14:13:42;15.02;;;13.63;;
52894;SDS011;38759;53.396;6.722;2023-05-07T14:16:07;14.57;;;13.27;;
52894;SDS011;38759;53.396;6.722;2023-05-07T14:18:33;14.55;;;13.25;;
52894;SDS011;38759;53.396;6.722;2023-05-07T14:21:00;16.50;;;14.32;;
52894;SDS011;38759;53.396;6.722;2023-05-07T14:23:28;14.20;;;13.00;;
52894;SDS011;38759;53.396;6.722;2023-05-07T14:25:54;15.95;;;14.60;;
52894;SDS011;38759;53.396;6.722;2023-05-07T14:28:21;14.20;;;12.85;;
52894;SDS011;38759;53.396;6.722;2023-05-07T14:30:47;14.90;;;13.48;;
52894;SDS011;38759;53.396;6.722;2023-05-07T14:33:13;13.88;;;12.38;;
52894;SDS011;38759;53.396;6.722;2023-05-07T14:35:39;14.63;;;13.23;;
52894;SDS011;38759;53.396;6.722;2023-05-07T14:38:04;14.02;;;12.82;;
52894;SDS011;38759;53.396;6.722;2023-05-07T14:40:30;13.30;;;11.98;;